sensor_id;sensor_type;location;lat;lon;timestamp;P1;durP1;ratioP1;P2;durP2;ratioP2
42632;SDS011;28261;53.304;-6.284;2023-07-31T00:00:27;3.08;;;1.27;;
42632;SDS011;28261;53.304;-6.284;2023-07-31T00:02:32;3.30;;;1.25;;
42632;SDS011;28261;53.304;-6.284;2023-07-31T00:04:38;2.80;;;1.20;;
42632;SDS011;28261;53.304;-6.284;2023-07-31T00:06:42;2.35;;;1.20;;
42632;SDS011;28261;53.304;-6.284;2023-07-31T00:08:48;2.05;;;1.10;;
42632;SDS011;28261;53.304;-6.284;2023-07-31T00:12:57;2.90;;;0.95;;
42632;SDS011;28261;53.304;-6.284;2023-07-31T00:15:01;4.45;;;1.15;;
42632;SDS011;28261;53.304;-6.284;2023-07-31T00:17:07;2.22;;;1.13;;
42632;SDS011;28261;53.304;-6.284;2023-07-31T00:19:12;1.48;;;1.10;;
42632;SDS011;28261;53.304;-6.284;2023-07-31T00:21:19;2.60;;;1.05;;
42632;SDS011;28261;53.304;-6.284;2023-07-31T00:23:24;1.83;;;0.90;;
42632;SDS011;28261;53.304;-6.284;2023-07-31T00:25:28;1.65;;;1.20;;
42632;SDS011;28261;53.304;-6.284;2023-07-31T00:27:31;5.45;;;1.05;;
42632;SDS011;28261;53.304;-6.284;2023-07-31T00:29:36;3.78;;;1.33;;
42632;SDS011;28261;53.304;-6.284;2023-07-31T00:31:40;1.95;;;1.10;;
42632;SDS011;28261;53.304;-6.284;2023-07-31T00:33:45;2.33;;;1.00;;
42632;SDS011;28261;53.304;-6.284;2023-07-31T00:35:48;2.83;;;1.25;;
42632;SDS011;28261;53.304;-6.284;2023-07-31T00:37:56;2.80;;;1.35;;
42632;SDS011;28261;53.304;-6.284;2023-07-31T00:40:01;2.95;;;1.25;;
42632;SDS011;28261;53.304;-6.284;2023-07-31T00:44:10;3.05;;;1.30;;
42632;SDS011;28261;53.304;-6.284;2023-07-31T00:46:14;3.08;;;1.13;;
42632;SDS011;28261;53.304;-6.284;2023-07-31T00:48:19;1.88;;;1.13;;
42632;SDS011;28261;53.304;-6.284;2023-07-31T00:52:28;3.28;;;1.15;;
42632;SDS011;28261;53.304;-6.284;2023-07-31T00:54:34;2.08;;;1.13;;
42632;SDS011;28261;53.304;-6.284;2023-07-31T00:56:38;1.25;;;1.08;;
42632;SDS011;28261;53.304;-6.284;2023-07-31T00:58:44;2.03;;;1.10;;
42632;SDS011;28261;53.304;-6.284;2023-07-31T01:00:49;2.85;;;1.20;;
42632;SDS011;28261;53.304;-6.284;2023-07-31T01:02:54;3.00;;;0.90;;
42632;SDS011;28261;53.304;-6.284;2023-07-31T01:07:05;1.63;;;0.93;;
42632;SDS011;28261;53.304;-6.284;2023-07-31T01:09:19;1.58;;;0.90;;
42632;SDS011;28261;53.304;-6.284;2023-07-31T01:11:33;2.33;;;1.02;;
42632;SDS011;28261;53.304;-6.284;2023-07-31T01:13:42;1.92;;;1.05;;
42632;SDS011;28261;53.304;-6.284;2023-07-31T01:15:47;1.80;;;1.08;;
42632;SDS011;28261;53.304;-6.284;2023-07-31T01:17:52;1.50;;;1.00;;
42632;SDS011;28261;53.304;-6.284;2023-07-31T01:19:57;1.63;;;1.00;;
42632;SDS011;28261;53.304;-6.284;2023-07-31T01:22:10;1.33;;;0.90;;
42632;SDS011;28261;53.304;-6.284;2023-07-31T01:26:36;1.98;;;0.85;;
42632;SDS011;28261;53.304;-6.284;2023-07-31T01:28:44;2.33;;;1.05;;
42632;SDS011;28261;53.304;-6.284;2023-07-31T01:30:54;1.42;;;0.90;;
42632;SDS011;28261;53.304;-6.284;2023-07-31T01:33:02;2.88;;;0.77;;
42632;SDS011;28261;53.304;-6.284;2023-07-31T01:35:10;1.55;;;0.75;;
42632;SDS011;28261;53.304;-6.284;2023-07-31T01:37:15;1.35;;;0.90;;
42632;SDS011;28261;53.304;-6.284;2023-07-31T01:39:19;1.33;;;1.00;;
42632;SDS011;28261;53.304;-6.284;2023-07-31T01:41:23;3.10;;;1.17;;
42632;SDS011;28261;53.304;-6.284;2023-07-31T01:43:29;0.95;;;0.73;;
42632;SDS011;28261;53.304;-6.284;2023-07-31T01:45:33;1.27;;;1.10;;
42632;SDS011;28261;53.304;-6.284;2023-07-31T01:47:39;2.38;;;1.10;;
42632;SDS011;28261;53.304;-6.284;2023-07-31T01:49:43;1.42;;;0.98;;
42632;SDS011;28261;53.304;-6.284;2023-07-31T01:51:47;1.98;;;0.82;;
42632;SDS011;28261;53.304;-6.284;2023-07-31T01:53:51;1.10;;;0.93;;
42632;SDS011;28261;53.304;-6.284;2023-07-31T01:55:55;2.35;;;1.13;;
42632;SDS011;28261;53.304;-6.284;2023-07-31T01:58:00;1.38;;;0.88;;
42632;SDS011;28261;53.304;-6.284;2023-07-31T02:00:07;2.42;;;0.80;;
42632;SDS011;28261;53.304;-6.284;2023-07-31T02:02:14;2.00;;;1.20;;
42632;SDS011;28261;53.304;-6.284;2023-07-31T02:04:19;1.98;;;0.82;;
42632;SDS011;28261;53.304;-6.284;2023-07-31T02:06:24;1.85;;;0.80;;
42632;SDS011;28261;53.304;-6.284;2023-07-31T02:08:29;3.22;;;0.80;;
42632;SDS011;28261;53.304;-6.284;2023-07-31T02:10:33;1.02;;;0.60;;
42632;SDS011;28261;53.304;-6.284;2023-07-31T02:12:38;1.77;;;0.90;;
42632;SDS011;28261;53.304;-6.284;2023-07-31T02:14:43;3.03;;;1.10;;
42632;SDS011;28261;53.304;-6.284;2023-07-31T02:16:49;2.30;;;0.98;;
42632;SDS011;28261;53.304;-6.284;2023-07-31T02:18:53;1.38;;;0.85;;
42632;SDS011;28261;53.304;-6.284;2023-07-31T02:20:57;1.60;;;1.20;;
42632;SDS011;28261;53.304;-6.284;2023-07-31T02:23:02;1.55;;;0.93;;
42632;SDS011;28261;53.304;-6.284;2023-07-31T02:25:05;4.32;;;1.13;;
42632;SDS011;28261;53.304;-6.284;2023-07-31T02:27:09;1.00;;;0.80;;
42632;SDS011;28261;53.304;-6.284;2023-07-31T02:29:14;3.05;;;1.13;;
42632;SDS011;28261;53.304;-6.284;2023-07-31T02:31:19;3.25;;;0.88;;
42632;SDS011;28261;53.304;-6.284;2023-07-31T02:33:26;1.00;;;0.85;;
42632;SDS011;28261;53.304;-6.284;2023-07-31T02:35:30;1.50;;;0.75;;
42632;SDS011;28261;53.304;-6.284;2023-07-31T02:37:34;2.35;;;0.88;;
42632;SDS011;28261;53.304;-6.284;2023-07-31T02:39:41;2.92;;;0.90;;
42632;SDS011;28261;53.304;-6.284;2023-07-31T02:41:45;2.15;;;0.90;;
42632;SDS011;28261;53.304;-6.284;2023-07-31T02:43:51;5.43;;;1.02;;
42632;SDS011;28261;53.304;-6.284;2023-07-31T02:45:56;1.70;;;0.93;;
42632;SDS011;28261;53.304;-6.284;2023-07-31T02:48:01;0.70;;;0.70;;
42632;SDS011;28261;53.304;-6.284;2023-07-31T02:52:13;0.70;;;0.52;;
42632;SDS011;28261;53.304;-6.284;2023-07-31T02:54:16;2.85;;;0.85;;
42632;SDS011;28261;53.304;-6.284;2023-07-31T02:56:22;2.05;;;0.75;;
42632;SDS011;28261;53.304;-6.284;2023-07-31T02:58:27;0.90;;;0.82;;
42632;SDS011;28261;53.304;-6.284;2023-07-31T03:00:30;0.70;;;0.70;;
42632;SDS011;28261;53.304;-6.284;2023-07-31T03:02:35;1.60;;;0.65;;
42632;SDS011;28261;53.304;-6.284;2023-07-31T03:04:39;1.58;;;0.60;;
42632;SDS011;28261;53.304;-6.284;2023-07-31T03:06:45;0.90;;;0.70;;
42632;SDS011;28261;53.304;-6.284;2023-07-31T03:08:49;1.55;;;0.80;;
42632;SDS011;28261;53.304;-6.284;2023-07-31T03:10:55;1.10;;;0.70;;
42632;SDS011;28261;53.304;-6.284;2023-07-31T03:13:01;1.67;;;0.88;;
42632;SDS011;28261;53.304;-6.284;2023-07-31T03:15:05;1.50;;;0.80;;
42632;SDS011;28261;53.304;-6.284;2023-07-31T03:17:11;2.25;;;0.88;;
42632;SDS011;28261;53.304;-6.284;2023-07-31T03:19:15;0.90;;;0.73;;
42632;SDS011;28261;53.304;-6.284;2023-07-31T03:21:20;2.92;;;0.82;;
42632;SDS011;28261;53.304;-6.284;2023-07-31T03:23:26;0.93;;;0.82;;
42632;SDS011;28261;53.304;-6.284;2023-07-31T03:25:30;0.88;;;0.70;;
42632;SDS011;28261;53.304;-6.284;2023-07-31T03:27:36;2.15;;;0.90;;
42632;SDS011;28261;53.304;-6.284;2023-07-31T03:29:40;2.30;;;0.82;;
42632;SDS011;28261;53.304;-6.284;2023-07-31T03:31:45;0.70;;;0.52;;
42632;SDS011;28261;53.304;-6.284;2023-07-31T03:33:49;1.40;;;0.90;;
42632;SDS011;28261;53.304;-6.284;2023-07-31T03:35:53;2.10;;;0.80;;
42632;SDS011;28261;53.304;-6.284;2023-07-31T03:37:58;0.90;;;0.73;;
42632;SDS011;28261;53.304;-6.284;2023-07-31T03:40:04;0.93;;;0.75;;
42632;SDS011;28261;53.304;-6.284;2023-07-31T03:42:09;1.52;;;0.70;;
42632;SDS011;28261;53.304;-6.284;2023-07-31T03:44:13;2.55;;;0.73;;
42632;SDS011;28261;53.304;-6.284;2023-07-31T03:46:17;1.42;;;0.82;;
42632;SDS011;28261;53.304;-6.284;2023-07-31T03:48:23;1.27;;;1.17;;
42632;SDS011;28261;53.304;-6.284;2023-07-31T03:50:26;1.60;;;0.85;;
42632;SDS011;28261;53.304;-6.284;2023-07-31T03:52:30;0.90;;;0.85;;
42632;SDS011;28261;53.304;-6.284;2023-07-31T03:54:34;1.17;;;0.65;;
42632;SDS011;28261;53.304;-6.284;2023-07-31T03:56:39;3.22;;;0.77;;
42632;SDS011;28261;53.304;-6.284;2023-07-31T03:58:43;1.00;;;0.60;;
42632;SDS011;28261;53.304;-6.284;2023-07-31T04:00:46;1.02;;;0.73;;
42632;SDS011;28261;53.304;-6.284;2023-07-31T04:02:50;0.93;;;0.65;;
42632;SDS011;28261;53.304;-6.284;2023-07-31T04:04:54;2.13;;;0.60;;
42632;SDS011;28261;53.304;-6.284;2023-07-31T04:06:58;1.52;;;0.90;;
42632;SDS011;28261;53.304;-6.284;2023-07-31T04:09:02;0.95;;;0.70;;
42632;SDS011;28261;53.304;-6.284;2023-07-31T04:11:06;0.73;;;0.70;;
42632;SDS011;28261;53.304;-6.284;2023-07-31T04:13:11;1.45;;;1.10;;
42632;SDS011;28261;53.304;-6.284;2023-07-31T04:15:15;2.25;;;0.90;;
42632;SDS011;28261;53.304;-6.284;2023-07-31T04:17:18;0.43;;;0.40;;
42632;SDS011;28261;53.304;-6.284;2023-07-31T04:19:23;0.98;;;0.75;;
42632;SDS011;28261;53.304;-6.284;2023-07-31T04:23:30;2.13;;;0.80;;
42632;SDS011;28261;53.304;-6.284;2023-07-31T04:25:34;1.20;;;0.82;;
42632;SDS011;28261;53.304;-6.284;2023-07-31T04:27:38;0.70;;;0.70;;
42632;SDS011;28261;53.304;-6.284;2023-07-31T04:29:45;2.28;;;0.90;;
42632;SDS011;28261;53.304;-6.284;2023-07-31T04:31:49;1.92;;;0.43;;
42632;SDS011;28261;53.304;-6.284;2023-07-31T04:33:53;2.00;;;0.70;;
42632;SDS011;28261;53.304;-6.284;2023-07-31T04:35:57;2.08;;;0.90;;
42632;SDS011;28261;53.304;-6.284;2023-07-31T04:38:00;2.38;;;1.05;;
42632;SDS011;28261;53.304;-6.284;2023-07-31T04:40:03;1.05;;;0.73;;
42632;SDS011;28261;53.304;-6.284;2023-07-31T04:42:07;2.35;;;0.93;;
42632;SDS011;28261;53.304;-6.284;2023-07-31T04:44:10;2.53;;;1.10;;
42632;SDS011;28261;53.304;-6.284;2023-07-31T04:46:15;3.05;;;1.00;;
42632;SDS011;28261;53.304;-6.284;2023-07-31T04:48:19;0.85;;;0.80;;
42632;SDS011;28261;53.304;-6.284;2023-07-31T04:50:23;1.08;;;0.80;;
42632;SDS011;28261;53.304;-6.284;2023-07-31T04:52:26;1.05;;;0.88;;
42632;SDS011;28261;53.304;-6.284;2023-07-31T04:54:30;1.02;;;0.73;;
42632;SDS011;28261;53.304;-6.284;2023-07-31T04:56:34;0.70;;;0.57;;
42632;SDS011;28261;53.304;-6.284;2023-07-31T04:58:38;0.65;;;0.65;;
42632;SDS011;28261;53.304;-6.284;2023-07-31T05:00:42;0.93;;;0.70;;
42632;SDS011;28261;53.304;-6.284;2023-07-31T05:02:47;0.52;;;0.52;;
42632;SDS011;28261;53.304;-6.284;2023-07-31T05:04:50;0.40;;;0.40;;
42632;SDS011;28261;53.304;-6.284;2023-07-31T05:06:54;2.55;;;0.75;;
42632;SDS011;28261;53.304;-6.284;2023-07-31T05:08:58;0.95;;;0.70;;
42632;SDS011;28261;53.304;-6.284;2023-07-31T05:11:02;0.57;;;0.50;;
42632;SDS011;28261;53.304;-6.284;2023-07-31T05:13:05;0.80;;;0.50;;
42632;SDS011;28261;53.304;-6.284;2023-07-31T05:15:09;1.38;;;0.30;;
42632;SDS011;28261;53.304;-6.284;2023-07-31T05:17:13;1.08;;;0.85;;
42632;SDS011;28261;53.304;-6.284;2023-07-31T05:19:18;0.95;;;0.90;;
42632;SDS011;28261;53.304;-6.284;2023-07-31T05:21:22;2.03;;;0.70;;
42632;SDS011;28261;53.304;-6.284;2023-07-31T05:23:26;0.80;;;0.80;;
42632;SDS011;28261;53.304;-6.284;2023-07-31T05:25:29;1.58;;;0.85;;
42632;SDS011;28261;53.304;-6.284;2023-07-31T05:27:33;1.73;;;1.00;;
42632;SDS011;28261;53.304;-6.284;2023-07-31T05:29:37;2.40;;;0.88;;
42632;SDS011;28261;53.304;-6.284;2023-07-31T05:31:41;1.27;;;1.02;;
42632;SDS011;28261;53.304;-6.284;2023-07-31T05:33:45;1.73;;;1.00;;
42632;SDS011;28261;53.304;-6.284;2023-07-31T05:35:49;4.22;;;1.35;;
42632;SDS011;28261;53.304;-6.284;2023-07-31T05:37:53;1.77;;;0.90;;
42632;SDS011;28261;53.304;-6.284;2023-07-31T05:39:58;3.47;;;1.58;;
42632;SDS011;28261;53.304;-6.284;2023-07-31T05:42:02;2.05;;;1.25;;
42632;SDS011;28261;53.304;-6.284;2023-07-31T05:44:06;2.58;;;1.10;;
42632;SDS011;28261;53.304;-6.284;2023-07-31T05:46:10;1.95;;;1.30;;
42632;SDS011;28261;53.304;-6.284;2023-07-31T05:48:15;3.80;;;1.30;;
42632;SDS011;28261;53.304;-6.284;2023-07-31T05:50:23;3.20;;;1.58;;
42632;SDS011;28261;53.304;-6.284;2023-07-31T05:52:28;3.42;;;1.50;;
42632;SDS011;28261;53.304;-6.284;2023-07-31T05:54:32;3.20;;;1.15;;
42632;SDS011;28261;53.304;-6.284;2023-07-31T05:56:36;4.22;;;1.30;;
42632;SDS011;28261;53.304;-6.284;2023-07-31T05:58:41;3.85;;;1.38;;
42632;SDS011;28261;53.304;-6.284;2023-07-31T06:00:45;3.40;;;1.15;;
42632;SDS011;28261;53.304;-6.284;2023-07-31T06:02:54;3.45;;;1.80;;
42632;SDS011;28261;53.304;-6.284;2023-07-31T06:04:59;3.78;;;1.30;;
42632;SDS011;28261;53.304;-6.284;2023-07-31T06:07:03;2.28;;;1.25;;
42632;SDS011;28261;53.304;-6.284;2023-07-31T06:09:09;3.33;;;1.88;;
42632;SDS011;28261;53.304;-6.284;2023-07-31T06:11:13;2.92;;;1.30;;
42632;SDS011;28261;53.304;-6.284;2023-07-31T06:13:18;4.55;;;1.45;;
42632;SDS011;28261;53.304;-6.284;2023-07-31T06:15:23;4.38;;;1.38;;
42632;SDS011;28261;53.304;-6.284;2023-07-31T06:17:27;5.85;;;2.30;;
42632;SDS011;28261;53.304;-6.284;2023-07-31T06:21:37;6.95;;;1.48;;
42632;SDS011;28261;53.304;-6.284;2023-07-31T06:23:46;5.30;;;1.95;;
42632;SDS011;28261;53.304;-6.284;2023-07-31T06:25:52;8.00;;;1.73;;
42632;SDS011;28261;53.304;-6.284;2023-07-31T06:27:58;5.30;;;2.30;;
42632;SDS011;28261;53.304;-6.284;2023-07-31T06:30:03;5.63;;;2.03;;
42632;SDS011;28261;53.304;-6.284;2023-07-31T06:32:09;6.88;;;2.35;;
42632;SDS011;28261;53.304;-6.284;2023-07-31T06:34:14;6.75;;;1.90;;
42632;SDS011;28261;53.304;-6.284;2023-07-31T06:36:19;5.68;;;2.38;;
42632;SDS011;28261;53.304;-6.284;2023-07-31T06:38:24;5.60;;;2.08;;
42632;SDS011;28261;53.304;-6.284;2023-07-31T06:40:30;4.47;;;1.73;;
42632;SDS011;28261;53.304;-6.284;2023-07-31T06:42:37;9.15;;;2.00;;
42632;SDS011;28261;53.304;-6.284;2023-07-31T06:44:41;5.88;;;2.03;;
42632;SDS011;28261;53.304;-6.284;2023-07-31T06:46:46;5.50;;;1.75;;
42632;SDS011;28261;53.304;-6.284;2023-07-31T06:48:49;3.78;;;1.67;;
42632;SDS011;28261;53.304;-6.284;2023-07-31T06:50:54;5.75;;;1.75;;
42632;SDS011;28261;53.304;-6.284;2023-07-31T06:52:58;7.43;;;2.00;;
42632;SDS011;28261;53.304;-6.284;2023-07-31T06:55:03;4.68;;;2.10;;
42632;SDS011;28261;53.304;-6.284;2023-07-31T06:57:22;4.25;;;1.88;;
42632;SDS011;28261;53.304;-6.284;2023-07-31T06:59:28;4.18;;;1.80;;
42632;SDS011;28261;53.304;-6.284;2023-07-31T07:01:33;5.40;;;2.05;;
42632;SDS011;28261;53.304;-6.284;2023-07-31T07:03:38;4.20;;;1.77;;
42632;SDS011;28261;53.304;-6.284;2023-07-31T07:05:42;6.28;;;2.08;;
42632;SDS011;28261;53.304;-6.284;2023-07-31T07:07:49;5.35;;;1.90;;
42632;SDS011;28261;53.304;-6.284;2023-07-31T07:09:55;5.22;;;2.20;;
42632;SDS011;28261;53.304;-6.284;2023-07-31T07:12:01;5.55;;;1.95;;
42632;SDS011;28261;53.304;-6.284;2023-07-31T07:14:08;5.35;;;1.70;;
42632;SDS011;28261;53.304;-6.284;2023-07-31T07:16:13;3.78;;;1.45;;
42632;SDS011;28261;53.304;-6.284;2023-07-31T07:18:18;6.07;;;2.10;;
42632;SDS011;28261;53.304;-6.284;2023-07-31T07:20:24;4.97;;;1.80;;
42632;SDS011;28261;53.304;-6.284;2023-07-31T07:22:30;6.55;;;2.15;;
42632;SDS011;28261;53.304;-6.284;2023-07-31T07:24:35;7.68;;;1.90;;
42632;SDS011;28261;53.304;-6.284;2023-07-31T07:26:40;5.32;;;1.90;;
42632;SDS011;28261;53.304;-6.284;2023-07-31T07:28:44;5.80;;;2.30;;
42632;SDS011;28261;53.304;-6.284;2023-07-31T07:30:50;4.35;;;2.17;;
42632;SDS011;28261;53.304;-6.284;2023-07-31T07:32:57;8.18;;;2.10;;
42632;SDS011;28261;53.304;-6.284;2023-07-31T07:35:01;5.97;;;1.85;;
42632;SDS011;28261;53.304;-6.284;2023-07-31T07:37:06;4.13;;;2.15;;
42632;SDS011;28261;53.304;-6.284;2023-07-31T07:39:10;5.10;;;1.90;;
42632;SDS011;28261;53.304;-6.284;2023-07-31T07:41:14;6.63;;;1.98;;
42632;SDS011;28261;53.304;-6.284;2023-07-31T07:43:18;5.03;;;1.42;;
42632;SDS011;28261;53.304;-6.284;2023-07-31T07:45:23;8.48;;;1.73;;
42632;SDS011;28261;53.304;-6.284;2023-07-31T07:47:28;3.75;;;1.42;;
42632;SDS011;28261;53.304;-6.284;2023-07-31T07:49:34;2.22;;;1.27;;
42632;SDS011;28261;53.304;-6.284;2023-07-31T07:51:39;6.80;;;1.63;;
42632;SDS011;28261;53.304;-6.284;2023-07-31T07:55:47;2.83;;;1.40;;
42632;SDS011;28261;53.304;-6.284;2023-07-31T07:57:52;3.95;;;1.08;;
42632;SDS011;28261;53.304;-6.284;2023-07-31T07:59:56;1.85;;;1.45;;
42632;SDS011;28261;53.304;-6.284;2023-07-31T08:02:00;3.22;;;1.35;;
42632;SDS011;28261;53.304;-6.284;2023-07-31T08:04:05;4.32;;;1.50;;
42632;SDS011;28261;53.304;-6.284;2023-07-31T08:06:10;3.05;;;1.35;;
42632;SDS011;28261;53.304;-6.284;2023-07-31T08:08:15;3.13;;;1.45;;
42632;SDS011;28261;53.304;-6.284;2023-07-31T08:10:19;3.92;;;1.50;;
42632;SDS011;28261;53.304;-6.284;2023-07-31T08:12:23;5.68;;;2.33;;
42632;SDS011;28261;53.304;-6.284;2023-07-31T08:14:27;4.18;;;1.42;;
42632;SDS011;28261;53.304;-6.284;2023-07-31T08:16:34;3.60;;;1.40;;
42632;SDS011;28261;53.304;-6.284;2023-07-31T08:20:45;4.35;;;1.33;;
42632;SDS011;28261;53.304;-6.284;2023-07-31T08:22:51;2.47;;;1.23;;
42632;SDS011;28261;53.304;-6.284;2023-07-31T08:24:56;3.42;;;1.40;;
42632;SDS011;28261;53.304;-6.284;2023-07-31T08:27:00;3.17;;;1.30;;
42632;SDS011;28261;53.304;-6.284;2023-07-31T08:29:03;2.63;;;1.52;;
42632;SDS011;28261;53.304;-6.284;2023-07-31T08:31:09;5.57;;;1.67;;
42632;SDS011;28261;53.304;-6.284;2023-07-31T08:33:13;7.72;;;1.55;;
42632;SDS011;28261;53.304;-6.284;2023-07-31T08:35:17;5.00;;;1.33;;
42632;SDS011;28261;53.304;-6.284;2023-07-31T08:37:21;8.57;;;2.25;;
42632;SDS011;28261;53.304;-6.284;2023-07-31T08:39:27;9.40;;;1.83;;
42632;SDS011;28261;53.304;-6.284;2023-07-31T08:41:31;4.45;;;1.40;;
42632;SDS011;28261;53.304;-6.284;2023-07-31T08:43:40;7.93;;;1.98;;
42632;SDS011;28261;53.304;-6.284;2023-07-31T08:45:45;11.90;;;1.70;;
42632;SDS011;28261;53.304;-6.284;2023-07-31T08:47:50;10.38;;;1.83;;
42632;SDS011;28261;53.304;-6.284;2023-07-31T08:49:56;5.75;;;1.92;;
42632;SDS011;28261;53.304;-6.284;2023-07-31T08:52:01;8.55;;;1.70;;
42632;SDS011;28261;53.304;-6.284;2023-07-31T08:54:06;5.07;;;1.70;;
42632;SDS011;28261;53.304;-6.284;2023-07-31T08:58:17;6.93;;;1.90;;
42632;SDS011;28261;53.304;-6.284;2023-07-31T09:02:31;6.07;;;1.35;;
42632;SDS011;28261;53.304;-6.284;2023-07-31T09:04:41;6.72;;;2.05;;
42632;SDS011;28261;53.304;-6.284;2023-07-31T09:06:45;7.75;;;1.60;;
42632;SDS011;28261;53.304;-6.284;2023-07-31T09:08:50;6.50;;;1.60;;
42632;SDS011;28261;53.304;-6.284;2023-07-31T09:10:57;6.68;;;2.00;;
42632;SDS011;28261;53.304;-6.284;2023-07-31T09:13:04;7.32;;;1.67;;
42632;SDS011;28261;53.304;-6.284;2023-07-31T09:15:13;7.28;;;1.67;;
42632;SDS011;28261;53.304;-6.284;2023-07-31T09:17:38;13.75;;;1.90;;
42632;SDS011;28261;53.304;-6.284;2023-07-31T09:19:43;4.57;;;1.77;;
42632;SDS011;28261;53.304;-6.284;2023-07-31T09:23:51;6.28;;;1.77;;
42632;SDS011;28261;53.304;-6.284;2023-07-31T09:28:04;11.13;;;2.30;;
42632;SDS011;28261;53.304;-6.284;2023-07-31T09:30:10;10.30;;;1.80;;
42632;SDS011;28261;53.304;-6.284;2023-07-31T09:32:15;7.10;;;1.58;;
42632;SDS011;28261;53.304;-6.284;2023-07-31T09:34:20;6.68;;;1.58;;
42632;SDS011;28261;53.304;-6.284;2023-07-31T09:36:32;3.78;;;1.42;;
42632;SDS011;28261;53.304;-6.284;2023-07-31T09:38:43;6.50;;;1.23;;
42632;SDS011;28261;53.304;-6.284;2023-07-31T09:40:47;4.85;;;1.25;;
42632;SDS011;28261;53.304;-6.284;2023-07-31T09:42:53;4.40;;;1.70;;
42632;SDS011;28261;53.304;-6.284;2023-07-31T09:45:08;6.93;;;1.60;;
42632;SDS011;28261;53.304;-6.284;2023-07-31T09:47:23;5.95;;;1.30;;
42632;SDS011;28261;53.304;-6.284;2023-07-31T09:49:28;7.32;;;1.50;;
42632;SDS011;28261;53.304;-6.284;2023-07-31T09:53:40;5.38;;;1.42;;
42632;SDS011;28261;53.304;-6.284;2023-07-31T09:55:45;6.78;;;1.92;;
42632;SDS011;28261;53.304;-6.284;2023-07-31T09:57:49;6.03;;;1.55;;
42632;SDS011;28261;53.304;-6.284;2023-07-31T09:59:54;6.50;;;1.80;;
42632;SDS011;28261;53.304;-6.284;2023-07-31T10:01:59;13.35;;;1.88;;
42632;SDS011;28261;53.304;-6.284;2023-07-31T10:04:04;8.55;;;1.63;;
42632;SDS011;28261;53.304;-6.284;2023-07-31T10:06:11;11.52;;;2.58;;
42632;SDS011;28261;53.304;-6.284;2023-07-31T10:08:18;6.22;;;1.70;;
42632;SDS011;28261;53.304;-6.284;2023-07-31T10:10:25;7.78;;;1.70;;
42632;SDS011;28261;53.304;-6.284;2023-07-31T10:12:31;6.40;;;1.75;;
42632;SDS011;28261;53.304;-6.284;2023-07-31T10:14:38;4.32;;;1.52;;
42632;SDS011;28261;53.304;-6.284;2023-07-31T10:16:44;4.47;;;1.33;;
42632;SDS011;28261;53.304;-6.284;2023-07-31T10:18:50;6.10;;;2.20;;
42632;SDS011;28261;53.304;-6.284;2023-07-31T10:20:56;4.53;;;1.58;;
42632;SDS011;28261;53.304;-6.284;2023-07-31T10:23:01;5.38;;;1.40;;
42632;SDS011;28261;53.304;-6.284;2023-07-31T10:25:06;4.72;;;1.40;;
42632;SDS011;28261;53.304;-6.284;2023-07-31T10:27:12;6.18;;;1.80;;
42632;SDS011;28261;53.304;-6.284;2023-07-31T10:29:16;6.03;;;3.13;;
42632;SDS011;28261;53.304;-6.284;2023-07-31T10:31:22;8.82;;;1.70;;
42632;SDS011;28261;53.304;-6.284;2023-07-31T10:33:27;5.13;;;2.13;;
42632;SDS011;28261;53.304;-6.284;2023-07-31T10:35:34;4.82;;;2.00;;
42632;SDS011;28261;53.304;-6.284;2023-07-31T10:37:38;7.80;;;1.50;;
42632;SDS011;28261;53.304;-6.284;2023-07-31T10:39:44;5.22;;;1.50;;
42632;SDS011;28261;53.304;-6.284;2023-07-31T10:41:59;5.75;;;1.33;;
42632;SDS011;28261;53.304;-6.284;2023-07-31T10:44:12;6.57;;;1.55;;
42632;SDS011;28261;53.304;-6.284;2023-07-31T10:46:21;6.60;;;1.40;;
42632;SDS011;28261;53.304;-6.284;2023-07-31T10:48:26;5.40;;;1.88;;
42632;SDS011;28261;53.304;-6.284;2023-07-31T10:50:46;8.32;;;1.90;;
42632;SDS011;28261;53.304;-6.284;2023-07-31T10:52:52;4.70;;;1.50;;
42632;SDS011;28261;53.304;-6.284;2023-07-31T10:55:14;7.47;;;1.60;;
42632;SDS011;28261;53.304;-6.284;2023-07-31T10:57:19;6.30;;;2.05;;
42632;SDS011;28261;53.304;-6.284;2023-07-31T10:59:26;4.40;;;1.30;;
42632;SDS011;28261;53.304;-6.284;2023-07-31T11:03:56;3.60;;;1.40;;
42632;SDS011;28261;53.304;-6.284;2023-07-31T11:06:02;7.25;;;1.95;;
42632;SDS011;28261;53.304;-6.284;2023-07-31T11:08:10;8.52;;;1.83;;
42632;SDS011;28261;53.304;-6.284;2023-07-31T11:10:19;5.75;;;1.65;;
42632;SDS011;28261;53.304;-6.284;2023-07-31T11:12:27;9.60;;;2.10;;
42632;SDS011;28261;53.304;-6.284;2023-07-31T11:14:33;7.05;;;1.45;;
42632;SDS011;28261;53.304;-6.284;2023-07-31T11:16:37;5.55;;;2.00;;
42632;SDS011;28261;53.304;-6.284;2023-07-31T11:18:45;5.20;;;2.08;;
42632;SDS011;28261;53.304;-6.284;2023-07-31T11:20:51;6.03;;;2.45;;
42632;SDS011;28261;53.304;-6.284;2023-07-31T11:22:57;3.20;;;1.80;;
42632;SDS011;28261;53.304;-6.284;2023-07-31T11:25:03;4.72;;;1.58;;
42632;SDS011;28261;53.304;-6.284;2023-07-31T11:29:11;7.80;;;1.67;;
42632;SDS011;28261;53.304;-6.284;2023-07-31T11:31:16;6.68;;;1.90;;
42632;SDS011;28261;53.304;-6.284;2023-07-31T11:33:21;5.00;;;1.63;;
42632;SDS011;28261;53.304;-6.284;2023-07-31T11:35:25;4.32;;;1.52;;
42632;SDS011;28261;53.304;-6.284;2023-07-31T11:37:38;4.53;;;1.10;;
42632;SDS011;28261;53.304;-6.284;2023-07-31T11:39:48;5.28;;;1.88;;
42632;SDS011;28261;53.304;-6.284;2023-07-31T11:42:02;5.35;;;1.73;;
42632;SDS011;28261;53.304;-6.284;2023-07-31T11:44:08;8.30;;;1.80;;
42632;SDS011;28261;53.304;-6.284;2023-07-31T11:46:28;5.05;;;2.05;;
42632;SDS011;28261;53.304;-6.284;2023-07-31T11:48:34;4.80;;;1.70;;
42632;SDS011;28261;53.304;-6.284;2023-07-31T11:50:40;4.82;;;1.63;;
42632;SDS011;28261;53.304;-6.284;2023-07-31T11:52:45;4.68;;;2.10;;
42632;SDS011;28261;53.304;-6.284;2023-07-31T11:54:53;5.10;;;1.60;;
42632;SDS011;28261;53.304;-6.284;2023-07-31T11:56:58;6.38;;;1.70;;
42632;SDS011;28261;53.304;-6.284;2023-07-31T11:59:05;5.75;;;1.58;;
42632;SDS011;28261;53.304;-6.284;2023-07-31T12:01:10;3.80;;;1.50;;
42632;SDS011;28261;53.304;-6.284;2023-07-31T12:03:18;6.03;;;1.60;;
42632;SDS011;28261;53.304;-6.284;2023-07-31T12:05:23;6.05;;;1.65;;
42632;SDS011;28261;53.304;-6.284;2023-07-31T12:07:27;9.50;;;1.88;;
42632;SDS011;28261;53.304;-6.284;2023-07-31T12:09:54;4.68;;;1.65;;
42632;SDS011;28261;53.304;-6.284;2023-07-31T12:11:58;7.40;;;2.47;;
42632;SDS011;28261;53.304;-6.284;2023-07-31T12:14:04;3.17;;;1.15;;
42632;SDS011;28261;53.304;-6.284;2023-07-31T12:18:12;5.80;;;2.88;;
42632;SDS011;28261;53.304;-6.284;2023-07-31T12:20:17;4.18;;;2.50;;
42632;SDS011;28261;53.304;-6.284;2023-07-31T12:22:23;4.00;;;1.20;;
42632;SDS011;28261;53.304;-6.284;2023-07-31T12:24:30;4.53;;;1.42;;
42632;SDS011;28261;53.304;-6.284;2023-07-31T12:26:38;4.35;;;1.20;;
42632;SDS011;28261;53.304;-6.284;2023-07-31T12:28:43;5.68;;;1.42;;
42632;SDS011;28261;53.304;-6.284;2023-07-31T12:30:49;3.50;;;1.30;;
42632;SDS011;28261;53.304;-6.284;2023-07-31T12:32:53;6.30;;;1.65;;
42632;SDS011;28261;53.304;-6.284;2023-07-31T12:34:59;4.85;;;1.58;;
42632;SDS011;28261;53.304;-6.284;2023-07-31T12:37:07;3.90;;;1.35;;
42632;SDS011;28261;53.304;-6.284;2023-07-31T12:39:17;3.15;;;1.30;;
42632;SDS011;28261;53.304;-6.284;2023-07-31T12:41:22;3.90;;;0.88;;
42632;SDS011;28261;53.304;-6.284;2023-07-31T12:43:28;9.38;;;1.70;;
42632;SDS011;28261;53.304;-6.284;2023-07-31T12:45:33;3.97;;;1.48;;
42632;SDS011;28261;53.304;-6.284;2023-07-31T12:47:38;5.13;;;1.65;;
42632;SDS011;28261;53.304;-6.284;2023-07-31T12:49:43;3.75;;;1.48;;
42632;SDS011;28261;53.304;-6.284;2023-07-31T12:51:47;6.38;;;1.70;;
42632;SDS011;28261;53.304;-6.284;2023-07-31T12:53:52;2.83;;;1.38;;
42632;SDS011;28261;53.304;-6.284;2023-07-31T12:55:56;3.83;;;1.50;;
42632;SDS011;28261;53.304;-6.284;2023-07-31T12:58:01;6.00;;;1.70;;
42632;SDS011;28261;53.304;-6.284;2023-07-31T13:00:07;4.25;;;1.45;;
42632;SDS011;28261;53.304;-6.284;2023-07-31T13:02:12;5.10;;;1.92;;